Aviation Digital Data Service (ADDS)

Output produced by TAFs form (0553 UTC 29 July 2016)
found at http://www.aviationweather.gov/adds/tafs/
 
KMDT 290545Z 2906/3006 VRB03KT 3SM -RA BR SCT015 OVC060 
     FM290700 04005KT 4SM -SHRA BR OVC015 
     FM291600 34008KT P6SM BKN050